Terminal Aerodrome Forecast
Issued by NWS Twin Cities, MN

Home | Current Version | Previous Version | Graphics & Text | Print | Product List | Glossary On
Versions: 1 2 3 4 5 6 7 8 9 10 11 12 13 14 15 16 17 18 19
000
FTUS43 KMPX 221553 AAB
TAFSTC
TAF AMD
KSTC 221553Z 2216/2312 32014G21KT P6SM OVC021
     FM221700 33014G22KT P6SM SCT025
     FM230000 34008KT P6SM FEW250=

USA.gov is the U.S. government's official web portal to all federal, state and local government web resources and services.